createdAt,value
2018-12-08T00:00:52.867Z,76.69
2018-12-08T00:03:23.438Z,75.51
2018-12-08T00:05:54.075Z,75.33
2018-12-08T00:08:24.669Z,75.17
2018-12-08T00:10:55.322Z,75.59
2018-12-08T00:13:25.974Z,76.45
2018-12-08T00:15:56.570Z,75.49
2018-12-08T00:18:27.641Z,75.19
2018-12-08T00:20:58.343Z,75.53
2018-12-08T00:23:29.310Z,75.27
2018-12-08T00:26:00.021Z,75.13
2018-12-08T00:28:30.617Z,75.35
2018-12-08T00:31:18.177Z,75.55
2018-12-08T00:33:48.818Z,75.81
2018-12-08T00:36:19.457Z,75.01
2018-12-08T00:38:50.534Z,75.62
2018-12-08T00:41:21.126Z,74.45
2018-12-08T00:43:51.918Z,75.47
2018-12-08T00:46:22.869Z,74.79
2018-12-08T00:48:53.509Z,74.78
2018-12-08T00:51:24.167Z,74.86
2018-12-08T00:56:46.233Z,74.59
2018-12-08T00:59:16.780Z,74.64
2018-12-08T01:01:47.385Z,74.63
2018-12-08T01:04:18.289Z,75.04
2018-12-08T01:06:48.953Z,74.99
2018-12-08T01:09:19.575Z,75.04
2018-12-08T01:11:50.606Z,74.45
2018-12-08T01:14:21.155Z,75.43
2018-12-08T01:16:51.771Z,75.67
2018-12-08T01:19:22.790Z,75.47
2018-12-08T01:21:53.390Z,75.77
2018-12-08T01:24:23.958Z,75.76
2018-12-08T01:26:54.722Z,75.16
2018-12-08T01:29:25.322Z,74.48
2018-12-08T01:31:56.798Z,74.29
2018-12-08T01:34:27.363Z,73.54
2018-12-08T01:36:58.253Z,72.88
2018-12-08T01:39:28.812Z,71.31
2018-12-08T01:41:59.433Z,71.77
2018-12-08T01:44:30.015Z,71.38
2018-12-08T01:47:01.085Z,71.20
2018-12-08T01:49:31.648Z,71.36
2018-12-08T01:52:02.258Z,71.13
2018-12-08T01:54:32.845Z,70.87
2018-12-08T01:57:03.428Z,69.99
2018-12-08T01:59:34.014Z,70.51
2018-12-08T02:02:04.585Z,70.16
2018-12-08T02:04:35.187Z,69.90
2018-12-08T02:07:05.761Z,69.44
2018-12-08T02:09:36.345Z,68.93
2018-12-08T02:12:06.921Z,70.73
2018-12-08T02:14:37.612Z,69.83
2018-12-08T02:17:08.192Z,69.76
2018-12-08T02:19:39.490Z,69.83
2018-12-08T02:22:10.104Z,69.78
2018-12-08T02:24:40.669Z,70.06
2018-12-08T02:27:11.266Z,69.49
2018-12-08T02:29:42.573Z,69.34
2018-12-08T02:32:13.482Z,69.69
2018-12-08T02:34:44.149Z,69.75
2018-12-08T02:37:14.790Z,69.67
2018-12-08T02:39:45.533Z,69.42
2018-12-08T02:42:16.595Z,70.07
2018-12-08T02:44:47.559Z,70.07
2018-12-08T02:47:18.147Z,69.00
2018-12-08T02:49:48.718Z,70.11
2018-12-08T02:52:19.319Z,69.95
2018-12-08T02:54:50.051Z,69.60
2018-12-08T02:57:20.765Z,69.97
2018-12-08T02:59:51.398Z,70.01
2018-12-08T03:02:22.766Z,70.01
2018-12-08T03:04:53.369Z,69.68
2018-12-08T03:07:23.965Z,70.50
2018-12-08T03:09:54.629Z,69.52
2018-12-08T03:12:25.278Z,69.47
2018-12-08T03:14:55.882Z,70.93
2018-12-08T03:17:26.452Z,69.70
2018-12-08T03:19:57.018Z,71.23
2018-12-08T03:22:27.613Z,71.00
2018-12-08T03:24:58.530Z,71.22
2018-12-08T03:27:29.593Z,71.43
2018-12-08T03:30:00.701Z,72.32
2018-12-08T03:32:31.357Z,72.33
2018-12-08T03:35:02.493Z,72.48
2018-12-08T03:37:33.330Z,71.98
2018-12-08T03:40:05.337Z,72.53
2018-12-08T03:42:35.906Z,73.28
2018-12-08T03:45:07.691Z,73.92
2018-12-08T03:47:38.290Z,74.31
2018-12-08T03:50:09.671Z,73.90
2018-12-08T03:52:40.980Z,73.85
2018-12-08T03:55:11.635Z,74.74
2018-12-08T03:57:42.262Z,74.53
2018-12-08T04:00:13.308Z,74.38
2018-12-08T04:02:43.955Z,75.08
2018-12-08T04:05:14.957Z,74.37
2018-12-08T04:07:45.905Z,74.43
2018-12-08T04:10:16.529Z,75.49
2018-12-08T04:12:47.699Z,75.18
2018-12-08T04:15:19.165Z,74.45
2018-12-08T04:17:50.083Z,75.63
2018-12-08T04:20:20.993Z,74.94
2018-12-08T04:22:51.891Z,74.79
2018-12-08T04:25:23.284Z,75.14
2018-12-08T04:27:54.134Z,73.75
2018-12-08T04:30:25.113Z,73.82
2018-12-08T04:32:55.706Z,74.17
2018-12-08T04:35:26.280Z,74.04
2018-12-08T04:37:57.443Z,73.87
2018-12-08T04:40:28.335Z,73.87
2018-12-08T04:42:58.933Z,74.67
2018-12-08T04:45:30.001Z,74.98
2018-12-08T04:48:00.690Z,74.66
2018-12-08T04:50:31.555Z,74.57
2018-12-08T04:53:02.168Z,73.97
2018-12-08T04:55:32.818Z,75.04
2018-12-08T04:58:04.485Z,74.65
2018-12-08T05:00:35.074Z,75.00
2018-12-08T05:03:05.708Z,74.15
2018-12-08T05:05:36.358Z,75.02
2018-12-08T05:08:06.938Z,75.57
2018-12-08T05:10:37.514Z,74.17
2018-12-08T05:13:08.293Z,74.34
2018-12-08T05:15:39.384Z,75.17
2018-12-08T05:18:10.426Z,74.17
2018-12-08T05:20:43.345Z,75.65
2018-12-08T05:23:14.038Z,75.24
2018-12-08T05:25:44.611Z,75.42
2018-12-08T05:28:15.507Z,75.26
2018-12-08T05:30:46.149Z,74.88
2018-12-08T05:33:16.764Z,75.11
2018-12-08T05:35:47.619Z,74.98
2018-12-08T05:38:18.238Z,75.21
2018-12-08T05:40:48.886Z,74.89
2018-12-08T05:43:19.506Z,75.58
2018-12-08T05:45:50.146Z,75.21
2018-12-08T05:48:21.059Z,74.81
2018-12-08T05:50:51.731Z,75.72
2018-12-08T05:53:22.333Z,75.01
2018-12-08T05:55:52.971Z,75.60
2018-12-08T05:58:23.586Z,75.17
2018-12-08T06:00:54.164Z,75.62
2018-12-08T06:03:25.003Z,76.09
2018-12-08T06:05:55.873Z,75.02
2018-12-08T06:08:26.509Z,74.98
2018-12-08T06:10:57.519Z,75.25
2018-12-08T06:13:29.284Z,76.05
2018-12-08T06:16:00.125Z,75.54
2018-12-08T06:18:31.127Z,75.29
2018-12-08T06:21:01.830Z,75.17
2018-12-08T06:23:32.394Z,75.53
2018-12-08T06:26:13.933Z,75.56
2018-12-08T06:28:47.864Z,75.31
2018-12-08T06:31:25.289Z,75.62
2018-12-08T06:33:58.909Z,75.42
2018-12-08T06:36:33.778Z,75.24
2018-12-08T06:39:05.394Z,74.76
2018-12-08T06:41:36.701Z,75.92
2018-12-08T06:44:07.321Z,74.65
2018-12-08T06:46:38.157Z,75.83
2018-12-08T06:49:09.651Z,75.14
2018-12-08T06:51:40.650Z,76.12
2018-12-08T06:54:11.250Z,75.35
2018-12-08T06:56:42.222Z,75.08
2018-12-08T06:59:13.066Z,74.95
2018-12-08T07:01:44.206Z,74.92
2018-12-08T07:04:15.134Z,74.75
2018-12-08T07:06:46.081Z,74.07
2018-12-08T07:09:16.990Z,74.50
2018-12-08T07:11:48.013Z,74.02
2018-12-08T07:14:18.671Z,74.42
2018-12-08T07:16:49.654Z,75.00
2018-12-08T07:19:20.533Z,73.71
2018-12-08T07:21:51.190Z,73.79
2018-12-08T07:24:21.766Z,74.21
2018-12-08T07:26:52.983Z,73.22
2018-12-08T07:29:23.740Z,73.16
2018-12-08T07:31:54.591Z,73.05
2018-12-08T07:34:25.241Z,73.53
2018-12-08T07:36:56.123Z,72.64
2018-12-08T07:42:15.176Z,72.23
2018-12-08T07:44:46.153Z,72.77
2018-12-08T07:47:17.170Z,73.11
2018-12-08T07:49:48.057Z,73.62
2018-12-08T07:52:19.158Z,72.92
2018-12-08T07:54:50.166Z,73.20
2018-12-08T07:57:21.239Z,72.86
2018-12-08T07:59:51.841Z,73.06
2018-12-08T08:02:22.448Z,72.62
2018-12-08T08:04:53.746Z,72.73
2018-12-08T08:07:25.309Z,72.88
2018-12-08T08:09:56.169Z,72.91
2018-12-08T08:12:27.201Z,73.08
2018-12-08T08:14:58.077Z,73.21
2018-12-08T08:17:29.026Z,73.04
2018-12-08T08:19:59.618Z,72.50
2018-12-08T08:22:30.273Z,73.36
2018-12-08T08:25:01.931Z,73.56
2018-12-08T08:27:32.782Z,73.29
2018-12-08T08:30:04.265Z,73.52
2018-12-08T08:32:35.130Z,73.17
2018-12-08T08:35:07.571Z,74.14
2018-12-08T08:37:38.166Z,73.23
2018-12-08T08:40:11.898Z,72.47
2018-12-08T08:42:42.810Z,73.59
2018-12-08T08:45:13.426Z,72.24
2018-12-08T08:47:44.343Z,72.74
2018-12-08T08:50:15.106Z,72.67
2018-12-08T08:52:45.961Z,73.67
2018-12-08T08:55:16.566Z,73.25
2018-12-08T08:57:47.126Z,73.30
2018-12-08T09:00:18.174Z,73.92
2018-12-08T09:02:48.751Z,73.20
2018-12-08T09:05:19.925Z,73.74
2018-12-08T09:07:50.535Z,73.24
2018-12-08T09:10:21.398Z,73.61
2018-12-08T09:12:52.090Z,73.22
2018-12-08T09:15:23.482Z,73.50
2018-12-08T09:17:54.181Z,73.57
2018-12-08T09:20:24.855Z,74.48
2018-12-08T09:22:55.447Z,74.43
2018-12-08T09:25:26.709Z,72.87
2018-12-08T09:27:57.277Z,74.15
2018-12-08T09:30:28.050Z,74.09
2018-12-08T09:32:58.634Z,73.77
2018-12-08T09:35:29.733Z,72.90
2018-12-08T09:38:00.346Z,74.21
2018-12-08T09:40:31.073Z,73.39
2018-12-08T09:43:01.770Z,73.55
2018-12-08T09:45:32.352Z,72.68
2018-12-08T09:48:02.925Z,72.92
2018-12-08T09:50:33.524Z,73.45
2018-12-08T09:53:16.838Z,73.36
2018-12-08T09:55:47.938Z,72.92
2018-12-08T09:58:18.697Z,73.99
2018-12-08T10:01:12.489Z,72.77
2018-12-08T10:03:43.113Z,73.22
2018-12-08T10:06:13.716Z,73.00
2018-12-08T10:08:44.366Z,72.87
2018-12-08T10:11:14.989Z,73.56
2018-12-08T10:13:45.731Z,72.95
2018-12-08T10:16:16.298Z,73.51
2018-12-08T10:18:46.880Z,73.67
2018-12-08T10:21:17.494Z,74.50
2018-12-08T10:23:48.170Z,74.28
2018-12-08T10:26:18.813Z,73.92
2018-12-08T10:28:49.394Z,74.19
2018-12-08T10:31:20.046Z,73.75
2018-12-08T10:33:50.937Z,73.49
2018-12-08T10:36:21.639Z,73.87
2018-12-08T10:38:52.250Z,73.21
2018-12-08T10:41:22.814Z,74.57
2018-12-08T10:43:55.004Z,74.42
2018-12-08T10:46:26.295Z,73.77
2018-12-08T10:48:56.954Z,73.74
2018-12-08T10:51:27.553Z,74.58
2018-12-08T10:54:00.019Z,75.14
2018-12-08T10:56:30.660Z,75.21
2018-12-08T10:59:01.746Z,75.78
2018-12-08T11:01:37.982Z,76.50
2018-12-08T11:04:08.919Z,75.83
2018-12-08T11:06:39.497Z,76.17
2018-12-08T11:09:10.701Z,76.06
2018-12-08T11:11:41.265Z,75.38
2018-12-08T11:14:11.946Z,75.23
2018-12-08T11:16:42.580Z,75.24
2018-12-08T11:19:13.169Z,74.17
2018-12-08T11:21:43.856Z,74.12
2018-12-08T11:24:14.663Z,74.76
2018-12-08T11:26:45.248Z,74.90
2018-12-08T11:29:15.902Z,76.26
2018-12-08T11:31:46.498Z,77.07
2018-12-08T11:34:17.086Z,76.97
2018-12-08T11:36:49.628Z,77.42
2018-12-08T11:39:20.301Z,78.51
2018-12-08T11:41:51.269Z,77.99
2018-12-08T11:44:21.838Z,78.32
2018-12-08T11:46:53.187Z,79.67
2018-12-08T11:49:23.858Z,78.53
2018-12-08T11:51:54.439Z,79.82
2018-12-08T11:54:25.497Z,80.03
2018-12-08T11:56:56.626Z,80.06
2018-12-08T11:59:27.275Z,79.96
2018-12-08T12:01:57.923Z,80.78
2018-12-08T12:04:28.700Z,79.34
2018-12-08T12:06:59.725Z,78.88
2018-12-08T12:09:30.778Z,78.69
2018-12-08T12:12:01.679Z,78.13
2018-12-08T12:14:46.632Z,79.26
2018-12-08T12:17:17.483Z,80.14
2018-12-08T12:19:48.158Z,80.68
2018-12-08T12:22:20.278Z,80.39
2018-12-08T12:24:50.867Z,80.19
2018-12-08T12:27:21.568Z,81.15
2018-12-08T12:29:52.189Z,80.73
2018-12-08T12:32:23.264Z,80.43
2018-12-08T12:34:53.946Z,79.92
2018-12-08T12:37:24.535Z,81.48
2018-12-08T12:39:55.166Z,80.58
2018-12-08T12:42:25.822Z,81.27
2018-12-08T12:44:56.474Z,81.01
2018-12-08T12:47:27.053Z,80.66
2018-12-08T12:49:57.856Z,79.33
2018-12-08T12:52:28.969Z,79.25
2018-12-08T12:54:59.913Z,79.87
2018-12-08T12:57:30.516Z,79.13
2018-12-08T13:00:01.899Z,78.28
2018-12-08T13:02:33.634Z,79.10
2018-12-08T13:05:04.519Z,78.57
2018-12-08T13:07:35.131Z,78.92
2018-12-08T13:10:06.817Z,78.87
2018-12-08T13:12:37.951Z,78.62
2018-12-08T13:15:09.267Z,78.58
2018-12-08T13:17:39.894Z,78.45
2018-12-08T13:20:10.499Z,78.67
2018-12-08T13:22:41.643Z,77.43
2018-12-08T13:25:24.254Z,77.98
2018-12-08T13:30:38.618Z,78.00
2018-12-08T13:33:09.682Z,78.50
2018-12-08T13:35:57.772Z,79.91
2018-12-08T13:38:28.701Z,80.88
2018-12-08T13:40:59.311Z,80.80
2018-12-08T13:43:32.485Z,81.16
2018-12-08T13:46:03.836Z,81.04
2018-12-08T13:48:35.350Z,81.93
2018-12-08T13:51:06.226Z,82.11
2018-12-08T13:53:37.207Z,81.33
2018-12-08T13:56:08.226Z,81.64
2018-12-08T13:58:38.865Z,81.32
2018-12-08T14:01:09.486Z,81.33
2018-12-08T14:03:40.296Z,81.82
2018-12-08T14:06:11.229Z,82.61
2018-12-08T14:08:41.868Z,83.06
2018-12-08T14:11:12.486Z,83.64
2018-12-08T14:13:44.253Z,84.59
2018-12-08T14:16:14.868Z,84.68
2018-12-08T14:18:45.525Z,84.62
2018-12-08T14:21:16.250Z,85.19
2018-12-08T14:23:46.956Z,86.38
2018-12-08T14:26:17.926Z,85.42
2018-12-08T14:28:48.534Z,85.52
2018-12-08T14:31:19.178Z,85.13
2018-12-08T14:33:50.603Z,84.63
2018-12-08T14:36:21.229Z,85.31
2018-12-08T14:38:57.478Z,84.19
2018-12-08T14:41:24.478Z,83.99
2018-12-08T14:44:11.369Z,84.05
2018-12-08T14:46:42.001Z,83.70
2018-12-08T14:49:13.058Z,84.08
2018-12-08T14:51:43.718Z,84.46
2018-12-08T14:54:14.331Z,84.49
2018-12-08T14:56:45.081Z,84.41
2018-12-08T14:59:15.771Z,84.14
2018-12-08T15:01:46.521Z,83.78
2018-12-08T15:04:17.418Z,84.11
2018-12-08T15:06:48.605Z,84.17
2018-12-08T15:09:19.210Z,83.66
2018-12-08T15:11:50.139Z,82.70
2018-12-08T15:14:20.782Z,83.49
2018-12-08T15:16:51.736Z,83.17
2018-12-08T15:19:39.757Z,82.96
2018-12-08T15:22:10.413Z,83.48
2018-12-08T15:24:41.470Z,83.15
2018-12-08T15:27:12.171Z,83.48
2018-12-08T15:29:42.813Z,82.85
2018-12-08T15:32:13.449Z,82.94
2018-12-08T15:34:44.042Z,82.95
2018-12-08T15:37:15.221Z,83.42
2018-12-08T15:39:45.835Z,82.71
2018-12-08T15:42:16.515Z,83.32
2018-12-08T15:44:47.702Z,82.90
2018-12-08T15:47:18.962Z,83.23
2018-12-08T15:49:50.101Z,83.58
2018-12-08T15:52:21.425Z,83.31
2018-12-08T15:54:52.373Z,83.17
2018-12-08T15:57:23.525Z,82.86
2018-12-08T15:59:54.153Z,83.49
2018-12-08T16:02:24.894Z,83.26
2018-12-08T16:04:55.916Z,83.36
2018-12-08T16:07:27.000Z,83.09
2018-12-08T16:09:57.997Z,82.12
2018-12-08T16:12:28.633Z,82.09
2018-12-08T16:14:59.542Z,82.06
2018-12-08T16:17:38.813Z,82.16
2018-12-08T16:20:13.147Z,81.37
2018-12-08T16:22:44.610Z,80.92
2018-12-08T16:25:15.641Z,81.52
2018-12-08T16:27:46.802Z,81.57
2018-12-08T16:30:17.410Z,81.43
2018-12-08T16:32:48.347Z,81.60
2018-12-08T16:35:20.194Z,81.24
2018-12-08T16:37:56.930Z,81.65
2018-12-08T16:40:24.600Z,81.25
2018-12-08T16:42:57.335Z,81.73
2018-12-08T16:45:28.034Z,82.23
2018-12-08T16:47:58.678Z,82.16
2018-12-08T16:50:29.531Z,82.01
2018-12-08T16:53:00.586Z,81.93
2018-12-08T16:55:32.418Z,82.60
2018-12-08T16:58:03.341Z,82.13
2018-12-08T17:00:34.270Z,81.60
2018-12-08T17:03:05.658Z,81.92
2018-12-08T17:05:36.758Z,82.15
2018-12-08T17:08:08.437Z,82.40
2018-12-08T17:10:39.378Z,82.19
2018-12-08T17:13:10.319Z,82.74
2018-12-08T17:15:40.929Z,82.08
2018-12-08T17:18:11.778Z,81.53
2018-12-08T17:20:42.364Z,81.99
2018-12-08T17:23:13.761Z,82.53
2018-12-08T17:25:44.680Z,82.23
2018-12-08T17:34:13.015Z,81.97
2018-12-08T17:36:43.930Z,81.96
2018-12-08T17:39:14.900Z,82.70
2018-12-08T17:41:46.169Z,81.95
2018-12-08T17:44:17.188Z,81.94
2018-12-08T17:46:47.956Z,81.66
2018-12-08T17:49:18.649Z,81.96
2018-12-08T17:51:49.679Z,81.54
2018-12-08T17:54:21.140Z,81.34
2018-12-08T17:56:51.859Z,80.79
2018-12-08T17:59:22.786Z,80.62
2018-12-08T18:01:53.534Z,81.23
2018-12-08T18:04:24.601Z,80.20
2018-12-08T18:06:55.299Z,80.79
2018-12-08T18:09:25.916Z,79.94
2018-12-08T18:11:56.664Z,79.72
2018-12-08T18:14:27.533Z,80.03
2018-12-08T18:16:58.663Z,79.59
2018-12-08T18:19:29.274Z,78.90
2018-12-08T18:22:00.338Z,79.79
2018-12-08T18:24:31.185Z,79.30
2018-12-08T18:27:26.230Z,79.92
2018-12-08T18:29:57.279Z,80.25
2018-12-08T18:32:27.915Z,79.79
2018-12-08T18:34:58.527Z,79.75
2018-12-08T18:37:29.162Z,79.77
2018-12-08T18:39:59.738Z,79.58
2018-12-08T18:42:30.517Z,79.59
2018-12-08T18:45:01.164Z,79.76
2018-12-08T18:47:32.213Z,80.04
2018-12-08T18:50:02.939Z,79.37
2018-12-08T18:52:33.790Z,78.96
2018-12-08T18:55:05.012Z,78.71
2018-12-08T18:57:35.678Z,79.78
2018-12-08T19:00:11.314Z,79.67
2018-12-08T19:02:43.423Z,79.02
2018-12-08T19:05:14.460Z,79.81
2018-12-08T19:07:45.514Z,80.23
2018-12-08T19:10:16.168Z,79.64
2018-12-08T19:12:47.425Z,79.23
2018-12-08T19:15:18.173Z,78.58
2018-12-08T19:17:49.429Z,79.02
2018-12-08T19:20:20.076Z,78.50
2018-12-08T19:22:51.207Z,78.21
2018-12-08T19:25:21.895Z,78.55
2018-12-08T19:27:52.604Z,79.37
2018-12-08T19:30:23.483Z,79.05
2018-12-08T19:32:54.245Z,79.44
2018-12-08T19:35:24.967Z,79.31
2018-12-08T19:37:56.551Z,79.22
2018-12-08T19:40:27.238Z,78.79
2018-12-08T19:42:57.873Z,78.84
2018-12-08T19:45:28.482Z,79.08
2018-12-08T19:47:59.147Z,78.10
2018-12-08T19:50:29.762Z,78.92
2018-12-08T19:53:00.539Z,78.55
2018-12-08T19:55:31.126Z,77.56
2018-12-08T19:58:01.774Z,77.78
2018-12-08T20:00:32.514Z,77.50
2018-12-08T20:03:03.213Z,77.91
2018-12-08T20:05:33.803Z,77.50
2018-12-08T20:08:04.690Z,77.02
2018-12-08T20:10:35.306Z,77.31
2018-12-08T20:13:05.960Z,76.77
2018-12-08T20:15:37.482Z,77.02
2018-12-08T20:18:08.449Z,77.28
2018-12-08T20:20:39.182Z,77.31
2018-12-08T20:23:10.113Z,77.89
2018-12-08T20:25:40.763Z,77.76
2018-12-08T20:28:11.542Z,77.80
2018-12-08T20:30:42.194Z,78.18
2018-12-08T20:33:12.822Z,79.47
2018-12-08T20:35:43.467Z,78.62
2018-12-08T20:38:14.476Z,79.06
2018-12-08T20:40:45.164Z,79.72
2018-12-08T20:43:15.811Z,79.12
2018-12-08T20:45:46.592Z,79.19
2018-12-08T20:48:17.486Z,79.11
2018-12-08T20:50:48.176Z,78.70
2018-12-08T20:53:18.823Z,79.25
2018-12-08T20:55:49.415Z,79.38
2018-12-08T20:58:20.073Z,80.14
2018-12-08T21:00:50.703Z,80.97
2018-12-08T21:03:21.347Z,80.13
2018-12-08T21:05:51.959Z,80.85
2018-12-08T21:08:22.613Z,81.01
2018-12-08T21:10:53.313Z,80.70
2018-12-08T21:13:23.958Z,81.62
2018-12-08T21:15:55.039Z,81.16
2018-12-08T21:18:25.789Z,80.61
2018-12-08T21:20:56.398Z,81.05
2018-12-08T21:23:27.270Z,80.62
2018-12-08T21:25:58.321Z,80.71
2018-12-08T21:28:29.295Z,80.52
2018-12-08T21:31:00.519Z,80.57
2018-12-08T21:33:31.154Z,80.29
2018-12-08T21:36:01.778Z,80.75
2018-12-08T21:38:32.413Z,80.90
2018-12-08T21:41:03.114Z,80.64
2018-12-08T21:43:33.788Z,80.91
2018-12-08T21:46:04.376Z,81.40
2018-12-08T21:48:35.115Z,80.50
2018-12-08T21:51:05.805Z,81.03
2018-12-08T21:53:36.409Z,81.17
2018-12-08T21:56:07.034Z,80.95
2018-12-08T21:58:37.650Z,80.64
2018-12-08T22:01:08.301Z,81.12
2018-12-08T22:03:39.278Z,81.21
2018-12-08T22:06:10.368Z,81.32
2018-12-08T22:08:41.199Z,80.91
2018-12-08T22:11:11.863Z,80.89
2018-12-08T22:13:42.448Z,81.60
2018-12-08T22:16:13.410Z,80.65
2018-12-08T22:18:44.046Z,80.98
2018-12-08T22:21:15.491Z,81.61
2018-12-08T22:23:46.104Z,82.09
2018-12-08T22:26:17.072Z,81.40
2018-12-08T22:28:47.678Z,82.26
2018-12-08T22:31:18.938Z,81.70
2018-12-08T22:33:49.566Z,82.07
2018-12-08T22:36:20.529Z,81.87
2018-12-08T22:38:51.130Z,82.20
2018-12-08T22:41:21.949Z,82.18
2018-12-08T22:43:52.647Z,81.62
2018-12-08T22:46:23.342Z,82.35
2018-12-08T22:48:54.052Z,81.83
2018-12-08T22:51:24.678Z,81.28
2018-12-08T22:53:55.314Z,81.97
2018-12-08T22:56:26.049Z,82.45
2018-12-08T22:58:56.622Z,81.87
2018-12-08T23:01:27.757Z,81.57
2018-12-08T23:03:58.353Z,81.39
2018-12-08T23:06:29.002Z,82.02
2018-12-08T23:08:59.609Z,82.17
2018-12-08T23:11:30.275Z,83.39
2018-12-08T23:14:00.865Z,83.21
2018-12-08T23:16:31.596Z,83.35
2018-12-08T23:19:02.320Z,84.67
2018-12-08T23:21:32.982Z,83.66
2018-12-08T23:24:03.590Z,83.54
2018-12-08T23:26:34.239Z,83.72
2018-12-08T23:29:05.258Z,83.48
2018-12-08T23:31:35.915Z,83.96
2018-12-08T23:34:06.551Z,84.41
2018-12-08T23:36:37.486Z,85.19
2018-12-08T23:39:09.394Z,84.69
2018-12-08T23:41:40.482Z,85.58
2018-12-08T23:44:11.056Z,85.29
2018-12-08T23:46:42.126Z,86.45
2018-12-08T23:49:12.878Z,86.33
2018-12-08T23:51:43.541Z,85.99
2018-12-08T23:54:14.122Z,86.07
2018-12-08T23:56:44.730Z,86.39
2018-12-08T23:59:15.406Z,86.40
